Flight Track Log - Related Links

Times and Time Zones

All times are in EDT time to prevent confusion due to time zone crossing. See the HL-8251 flight status page for this flight to view local times or setup timezone preferences in your user account.

Time Position Orientation Groundspeed Altitude Reporting Facility
EDT Latitude Longitude Course Direction KTS MPH feet Rate Location/Type
Sat 07:25:02 PM 46.7340 12.6810 64° Northeast 527 606 32,000  Level FlightAware ADS-B
Sat 07:25:47 PM 46.7810 12.8240 64° Northeast 528 608 32,000  Level FlightAware ADS-B
Sat 07:26:27 PM 46.8220 12.9510 65° Northeast 526 605 32,000  Level FlightAware ADS-B
Sat 07:27:07 PM 46.8650 13.0820 64° Northeast 524 603 32,000  Level FlightAware ADS-B
Sat 07:27:52 PM 46.9100 13.2230 65° Northeast 518 596 32,000  Level FlightAware ADS-B
Sat 07:28:32 PM 46.9520 13.3520 64° Northeast 517 595 32,000  Level FlightAware ADS-B
Sat 07:29:17 PM 46.9980 13.4950 65° Northeast 519 597 32,000  Level FlightAware ADS-B
Sat 07:29:57 PM 47.0370 13.6190 65° Northeast 518 596 32,000  Level FlightAware ADS-B
Sat 07:30:37 PM 47.0790 13.7500 65° Northeast 517 595 32,000  Level FlightAware ADS-B
Sat 07:31:22 PM 47.1260 13.8990 65° Northeast 521 600 32,000  Level FlightAware ADS-B
Sat 07:32:07 PM 47.1720 14.0450 65° Northeast 523 602 32,000  Level FlightAware ADS-B
Sat 07:32:47 PM 47.2110 14.1710 65° Northeast 525 604 32,000  Level FlightAware ADS-B
Sat 07:33:27 PM 47.2510 14.2970 65° Northeast 523 602 32,000  Level FlightAware ADS-B
Sat 07:34:12 PM 47.2930 14.4360 66° East 526 605 32,000  Level FlightAware ADS-B
Sat 07:34:47 PM 47.3290 14.5530 66° East 526 605 32,000  Level FlightAware ADS-B
Sat 07:35:32 PM 47.3790 14.7140 65° Northeast 524 603 32,000  Level FlightAware ADS-B
Sat 07:36:17 PM 47.4220 14.8560 66° East 526 605 32,000  Level FlightAware ADS-B
Sat 07:36:57 PM 47.4620 14.9900 66° East 528 608 32,000  Level FlightAware ADS-B
Sat 07:37:37 PM 47.5020 15.1230 66° East 531 611 32,000  Level FlightAware ADS-B
Sat 07:38:22 PM 47.5480 15.2760 66° East 535 616 32,000  Level FlightAware ADS-B
Sat 07:39:02 PM 47.5880 15.4100 66° East 535 616 32,000  Level FlightAware ADS-B
Sat 07:39:42 PM 47.6270 15.5440 67° East 536 617 32,000  Level FlightAware ADS-B
Sat 07:40:27 PM 47.6700 15.6900 66° East 534 615 32,000  Level FlightAware ADS-B
Sat 07:41:12 PM 47.7140 15.8410 67° East 527 606 32,000  Level FlightAware ADS-B
Sat 07:41:52 PM 47.7520 15.9720 67° East 526 605 32,000  Level FlightAware ADS-B
Sat 07:42:32 PM 47.7910 16.1070 67° East 528 608 32,000  Level FlightAware ADS-B
Sat 07:43:17 PM 47.8350 16.2610 67° East 531 611 32,000  Level FlightAware ADS-B
Sat 07:43:52 PM 47.8670 16.3720 67° East 531 611 32,000  Level FlightAware ADS-B
Sat 07:44:37 PM 47.9120 16.5310 67° East 533 613 32,000  Level FlightAware ADS-B
Sat 07:45:22 PM 47.9540 16.6800 67° East 534 615 32,000  Level FlightAware ADS-B
Sat 07:46:02 PM 47.9920 16.8160 67° East 535 616 32,000  Level FlightAware ADS-B
Sat 07:46:47 PM 48.0420 16.9580 62° Northeast 534 615 32,000  Level FlightAware ADS-B
Sat 07:47:27 PM 48.1030 17.0710 51° Northeast 531 611 32,000  Level FlightAware ADS-B
Sat 07:48:12 PM 48.1790 17.1910 46° Northeast 532 612 32,000  Level FlightAware ADS-B
Sat 07:48:52 PM 48.2480 17.3000 46° Northeast 534 615 32,000  Level FlightAware ADS-B
Sat 07:49:32 PM 48.3140 17.4070 47° Northeast 534 615 32,000  Level FlightAware ADS-B
Sat 07:50:17 PM 48.3890 17.5270 47° Northeast 533 613 32,000  Level FlightAware ADS-B
Sat 07:50:57 PM 48.4600 17.6410 47° Northeast 534 615 32,000  Level FlightAware ADS-B
Sat 07:51:37 PM 48.5270 17.7500 47° Northeast 534 615 32,000  Level FlightAware ADS-B
Sat 07:52:22 PM 48.6010 17.8710 47° Northeast 536 617 32,000  Level FlightAware ADS-B
Sat 07:53:02 PM 48.6700 17.9840 47° Northeast 535 616 32,000  Level FlightAware ADS-B
Sat 07:53:47 PM 48.7440 18.1050 47° Northeast 534 615 32,000  Level FlightAware ADS-B
Sat 07:54:27 PM 48.8110 18.2170 48° Northeast 534 615 32,000  Level FlightAware ADS-B
Sat 07:55:07 PM 48.8770 18.3260 47° Northeast 533 613 32,000  Level FlightAware ADS-B
Sat 07:55:52 PM 48.9550 18.4540 47° Northeast 533 613 32,000  Level FlightAware ADS-B
Sat 07:56:22 PM 49.0040 18.5370 48° Northeast 533 613 32,000  Level FlightAware ADS-B
Sat 07:57:02 PM 49.0650 18.6400 48° Northeast 531 611 32,000  Level FlightAware ADS-B
Sat 07:57:42 PM 49.1330 18.7540 48° Northeast 531 611 32,000  Level FlightAware ADS-B
Sat 07:58:27 PM 49.2070 18.8790 48° Northeast 527 606 32,000  Level FlightAware ADS-B
Sat 07:59:07 PM 49.2730 18.9910 48° Northeast 524 603 32,000  Level FlightAware ADS-B
Sat 07:59:47 PM 49.3370 19.1010 48° Northeast 521 600 32,000  Level FlightAware ADS-B
Sat 08:00:32 PM 49.4090 19.2240 48° Northeast 518 596 32,000  Level FlightAware ADS-B
Sat 08:01:12 PM 49.4710 19.3300 48° Northeast 517 595 32,000  Level FlightAware ADS-B
Sat 08:01:57 PM 49.5450 19.4590 48° Northeast 515 593 32,000  Level FlightAware ADS-B
Sat 08:02:37 PM 49.6060 19.5640 48° Northeast 510 587 32,000  Level FlightAware ADS-B
Sat 08:03:17 PM 49.6690 19.6740 48° Northeast 507 583 32,000  Level FlightAware ADS-B
Sat 08:04:02 PM 49.7400 19.7990 49° Northeast 506 582 32,000  Level FlightAware ADS-B
Sat 08:04:42 PM 49.8010 19.9070 49° Northeast 505 581 32,000  Level FlightAware ADS-B
Sat 08:05:27 PM 49.8690 20.0260 48° Northeast 503 579 32,000  Level FlightAware ADS-B
Sat 08:06:07 PM 49.9300 20.1350 49° Northeast 500 575 32,000  Level FlightAware ADS-B
Sat 08:06:52 PM 49.9970 20.2540 49° Northeast 496 571 32,000  Level FlightAware ADS-B
Sat 08:07:32 PM 50.0580 20.3650 49° Northeast 495 570 32,000  Level FlightAware ADS-B
Sat 08:08:12 PM 50.1190 20.4730 49° Northeast 497 572 32,000  Level FlightAware ADS-B
Sat 08:08:57 PM 50.1850 20.5930 49° Northeast 497 572 32,000  Level FlightAware ADS-B
Sat 08:09:37 PM 50.2450 20.7020 49° Northeast 496 571 32,000  Level FlightAware ADS-B
Sat 08:10:22 PM 50.3130 20.8270 50° Northeast 492 566 32,000  Level FlightAware ADS-B
Sat 08:11:02 PM 50.3720 20.9350 49° Northeast 493 567 32,000  Level FlightAware ADS-B
Sat 08:11:42 PM 50.4310 21.0440 50° Northeast 493 567 32,000  Level FlightAware ADS-B
Sat 08:12:27 PM 50.4960 21.1640 50° Northeast 495 570 32,000  Level FlightAware ADS-B
Sat 08:13:07 PM 50.5560 21.2750 50° Northeast 496 571 32,000  Level FlightAware ADS-B
Sat 08:13:47 PM 50.6140 21.3820 49° Northeast 497 572 32,000  Level FlightAware ADS-B
Sat 08:14:32 PM 50.6820 21.5090 50° Northeast 499 574 32,000  Level FlightAware ADS-B
Sat 08:15:12 PM 50.7420 21.6220 50° Northeast 499 574 32,000  Level FlightAware ADS-B
Sat 08:15:57 PM 50.8070 21.7450 50° Northeast 499 574 32,000  Level FlightAware ADS-B
Sat 08:16:37 PM 50.8660 21.8580 50° Northeast 499 574 32,000  Level FlightAware ADS-B
Sat 08:17:22 PM 50.9310 21.9810 50° Northeast 499 574 32,000  Level FlightAware ADS-B
Sat 08:18:02 PM 50.9920 22.0980 50° Northeast 497 572 32,000  Level FlightAware ADS-B
Sat 08:18:42 PM 51.0500 22.2100 50° Northeast 498 573 32,000  Level FlightAware ADS-B
Sat 08:19:27 PM 51.1150 22.3360 51° Northeast 498 573 32,000  Level FlightAware ADS-B
Sat 08:20:07 PM 51.1740 22.4500 50° Northeast 498 573 32,000  Level FlightAware ADS-B
Sat 08:20:47 PM 51.2300 22.5610 51° Northeast 498 573 32,000  Level FlightAware ADS-B
Sat 08:21:32 PM 51.2980 22.6930 50° Northeast 499 574 32,000  Level FlightAware ADS-B
Sat 08:22:12 PM 51.3550 22.8060 51° Northeast 501 577 32,000  Level FlightAware ADS-B
Sat 08:22:57 PM 51.4200 22.9350 51° Northeast 501 577 32,000  Level FlightAware ADS-B
Sat 08:23:32 PM 51.4680 23.0310 51° Northeast 501 577 32,000  Level FlightAware ADS-B
Sat 08:24:22 PM 51.5430 23.1810 51° Northeast 502 578 32,000  Level FlightAware ADS-B
Sat 08:24:57 PM 51.5920 23.2780 51° Northeast 501 577 32,000  Level FlightAware ADS-B
Sat 08:25:37 PM 51.6520 23.4000 52° Northeast 502 578 32,000  Level FlightAware ADS-B
Sat 08:26:37 PM 51.7400 23.5740 51° Northeast 501 577 32,000  Level FlightAware ADS-B
Sat 08:27:22 PM 51.8090 23.6970 48° Northeast 499 574 32,000  Level FlightAware ADS-B
Sat 08:28:02 PM 51.8710 23.8090 48° Northeast 501 577 32,000  Level FlightAware ADS-B
Sat 08:28:47 PM 51.9340 23.9230 48° Northeast 501 577 32,000 160 Level FlightAware ADS-B
Sat 08:29:17 PM 51.9830 24.0120 48° Northeast 504 580 32,200 632 Climbing FlightAware ADS-B
Sat 08:30:22 PM 52.0820 24.1930 48° Northeast 493 567 33,000 436 Climbing FlightAware ADS-B
Sat 08:31:07 PM 52.1550 24.3260 48° Northeast 494 568 33,000  Level FlightAware ADS-B
Sat 08:31:47 PM 52.2140 24.4350 49° Northeast 495 570 33,000  Level FlightAware ADS-B
Sat 08:32:27 PM 52.2750 24.5480 49° Northeast 498 573 33,000  Level FlightAware ADS-B
Sat 08:33:07 PM 52.3310 24.6500 48° Northeast 500 575 33,000  Level FlightAware ADS-B
Sat 08:33:47 PM 52.3970 24.7750 49° Northeast 500 575 33,000  Level FlightAware ADS-B
Sat 08:34:22 PM 52.4500 24.8740 49° Northeast 500 575 33,000  Level FlightAware ADS-B
Sat 08:35:02 PM 52.5100 24.9880 49° Northeast 501 577 33,000  Level FlightAware ADS-B
Sat 08:35:37 PM 52.5620 25.0860 49° Northeast 500 575 33,000  Level FlightAware ADS-B
Sat 08:36:27 PM 52.6300 25.2150 49° Northeast 498 573 33,000  Level FlightAware ADS-B
Sat 08:37:07 PM 52.6990 25.3470 49° Northeast 498 573 33,000  Level FlightAware ADS-B
Sat 08:37:52 PM 52.7650 25.4750 50° Northeast 500 575 33,000  Level FlightAware ADS-B
Sat 08:38:32 PM 52.8250 25.5900 49° Northeast 500 575 33,000  Level FlightAware ADS-B
Sat 08:39:17 PM 52.8950 25.7260 49° Northeast 500 575 33,000  Level FlightAware ADS-B
Sat 08:39:57 PM 52.9530 25.8380 49° Northeast 499 574 33,000  Level FlightAware ADS-B
Sat 08:40:37 PM 53.0130 25.9560 50° Northeast 499 574 33,000  Level FlightAware ADS-B
Sat 08:41:22 PM 53.0780 26.0840 50° Northeast 500 575 33,000  Level FlightAware ADS-B
Sat 08:42:02 PM 53.1390 26.2040 50° Northeast 499 574 33,000  Level FlightAware ADS-B
Sat 08:42:47 PM 53.2070 26.3400 50° Northeast 499 574 33,000  Level FlightAware ADS-B
Sat 08:43:27 PM 53.2650 26.4560 50° Northeast 499 574 33,000  Level FlightAware ADS-B
Sat 08:44:07 PM 53.3240 26.5740 50° Northeast 499 574 33,000  Level FlightAware ADS-B
Sat 08:44:52 PM 53.3860 26.6990 50° Northeast 497 572 33,000  Level FlightAware ADS-B
Sat 08:45:27 PM 53.4350 26.7980 50° Northeast 497 572 33,000  Level FlightAware ADS-B
Sat 08:46:17 PM 53.5130 26.9590 51° Northeast 495 570 33,000  Level FlightAware ADS-B
Sat 08:46:57 PM 53.5730 27.0800 50° Northeast 495 570 33,000  Level FlightAware ADS-B
Sat 08:47:42 PM 53.6380 27.2140 51° Northeast 495 570 33,000  Level FlightAware ADS-B
Sat 08:48:22 PM 53.6930 27.3280 51° Northeast 495 570 33,000  Level FlightAware ADS-B
Sat 08:49:02 PM 53.7500 27.4480 51° Northeast 496 571 33,000  Level FlightAware ADS-B
Sat 08:49:47 PM 53.8160 27.5850 51° Northeast 497 572 33,000  Level FlightAware ADS-B
Sat 08:50:27 PM 53.8750 27.7080 51° Northeast 499 574 33,000  Level FlightAware ADS-B
Sat 08:51:12 PM 53.9370 27.8400 51° Northeast 499 574 33,000  Level FlightAware ADS-B
Sat 08:51:52 PM 53.9960 27.9650 51° Northeast 498 573 33,000  Level FlightAware ADS-B
Sat 08:52:32 PM 54.0540 28.0880 51° Northeast 499 574 33,000  Level FlightAware ADS-B
Sat 08:53:07 PM 54.1030 28.1950 52° Northeast 498 573 33,000  Level FlightAware ADS-B
Sat 08:53:57 PM 54.1760 28.3500 51° Northeast 498 573 33,000  Level FlightAware ADS-B
Sat 08:54:37 PM 54.2330 28.4740 52° Northeast 497 572 33,000  Level FlightAware ADS-B
Sat 08:55:22 PM 54.2950 28.6090 52° Northeast 495 570 33,000  Level FlightAware ADS-B
Sat 08:55:57 PM 54.3410 28.7110 52° Northeast 495 570 33,000  Level FlightAware ADS-B
Sat 08:56:42 PM 54.4000 28.8350 51° Northeast 495 570 33,000  Level FlightAware ADS-B
Sat 08:57:27 PM 54.4700 28.9940 53° Northeast 496 571 33,000  Level FlightAware ADS-B
Sat 08:58:12 PM 54.5310 29.1300 52° Northeast 496 571 33,000  Level FlightAware ADS-B
Sat 08:58:52 PM 54.5790 29.2360 52° Northeast 496 571 33,000  Level FlightAware ADS-B
Sat 08:59:32 PM 54.6270 29.3430 52° Northeast 496 571 33,000  Level FlightAware ADS-B
Sat 09:00:12 PM 54.6750 29.4490 52° Northeast 496 571 33,000  Level FlightAware ADS-B
Sat 09:01:02 PM 54.7350 29.5820 52° Northeast 496 571 33,000  Level FlightAware ADS-B
Sat 09:01:42 PM 54.8250 29.7950 54° Northeast 496 571 33,000  Level FlightAware ADS-B
Sat 09:02:22 PM 54.8800 29.9230 53° Northeast 497 572 33,000  Level FlightAware ADS-B
Sat 09:03:07 PM 54.9440 30.0710 53° Northeast 497 572 33,000  Level FlightAware ADS-B
Sat 09:03:47 PM 55.0000 30.1990 53° Northeast 498 573 33,000  Level FlightAware ADS-B
Sat 09:04:32 PM 55.0620 30.3450 53° Northeast 495 570 33,000  Level FlightAware ADS-B
Sat 09:05:02 PM 55.0990 30.4320 53° Northeast 495 570 33,000  Level FlightAware ADS-B
Sat 09:05:47 PM 55.1540 30.5600 53° Northeast 495 570 33,000  Level FlightAware ADS-B
Sat 09:06:37 PM 55.2130 30.6960 53° Northeast 495 570 33,000  Level FlightAware ADS-B
Sat 09:07:17 PM 55.2600 30.8060 53° Northeast 495 570 33,000  Level FlightAware ADS-B
Sat 09:07:57 PM 55.3070 30.9150 53° Northeast 495 570 33,000  Level FlightAware ADS-B
Sat 09:08:37 PM 55.3530 31.0240 53° Northeast 495 570 33,000  Level FlightAware ADS-B
Sat 09:09:17 PM 55.4000 31.1340 53° Northeast 495 570 33,000  Level FlightAware ADS-B
Sat 09:10:07 PM 55.4590 31.2710 53° Northeast 495 570 33,000  Level FlightAware ADS-B
Sat 09:10:47 PM 55.4950 31.6160 79° East 497 572 33,000  Level FlightAware ADS-B
Sat 09:11:27 PM 55.5350 31.7620 64° Northeast 496 571 33,000  Level FlightAware ADS-B
Sat 09:12:12 PM 55.5790 31.9180 63° Northeast 499 574 33,000  Level FlightAware ADS-B
Sat 09:12:52 PM 55.6200 32.0690 64° Northeast 501 577 33,000  Level FlightAware ADS-B
Sat 09:13:37 PM 55.6700 32.2530 64° Northeast 501 577 33,000  Level FlightAware ADS-B
Sat 09:14:17 PM 55.7080 32.3910 64° Northeast 503 579 33,000  Level FlightAware ADS-B
Sat 09:15:02 PM 55.7510 32.5500 64° Northeast 502 578 33,000  Level FlightAware ADS-B
Sat 09:15:42 PM 55.7940 32.7110 65° Northeast 501 577 33,000  Level FlightAware ADS-B
Sat 09:16:22 PM 55.8330 32.8580 65° Northeast 502 578 33,000  Level FlightAware ADS-B
Sat 09:17:07 PM 55.8820 33.0210 62° Northeast 501 577 33,000  Level FlightAware ADS-B
Sat 09:17:47 PM 55.9270 33.1520 58° Northeast 501 577 33,000  Level FlightAware ADS-B
Sat 09:18:22 PM 55.9700 33.2800 59° Northeast 500 575 33,000  Level FlightAware ADS-B
Sat 09:19:12 PM 56.0270 33.4470 59° Northeast 501 577 33,000  Level FlightAware ADS-B
Sat 09:19:57 PM 56.0810 33.6060 59° Northeast 501 577 33,000  Level FlightAware ADS-B
Sat 09:20:37 PM 56.1310 33.7540 59° Northeast 499 574 33,000  Level FlightAware ADS-B
Sat 09:21:17 PM 56.1780 33.8920 58° Northeast 500 575 33,000  Level FlightAware ADS-B
Sat 09:22:02 PM 56.2330 34.0580 59° Northeast 500 575 33,000  Level FlightAware ADS-B
Sat 09:22:42 PM 56.2800 34.1980 59° Northeast 500 575 33,000  Level FlightAware ADS-B
Sat 09:23:27 PM 56.3340 34.3630 59° Northeast 501 577 33,000  Level FlightAware ADS-B
Sat 09:24:07 PM 56.3800 34.5060 60° Northeast 503 579 33,000  Level FlightAware ADS-B
Sat 09:24:47 PM 56.4250 34.6480 60° Northeast 505 581 33,000  Level FlightAware ADS-B
Sat 09:25:32 PM 56.4780 34.8110 59° Northeast 506 582 33,000  Level FlightAware ADS-B
Sat 09:26:12 PM 56.5220 34.9630 62° Northeast 506 582 33,000  Level FlightAware ADS-B
Sat 09:26:57 PM 56.5630 35.1400 67° East 508 585 33,000  Level FlightAware ADS-B
Sat 09:27:37 PM 56.5980 35.2990 68° East 508 585 33,000  Level FlightAware ADS-B
Sat 09:28:17 PM 56.6300 35.4460 68° East 509 586 33,000  Level FlightAware ADS-B
Sat 09:29:02 PM 56.6720 35.6370 68° East 510 587 33,000  Level FlightAware ADS-B
Sat 09:29:42 PM 56.7060 35.7960 69° East 512 589 33,000  Level FlightAware ADS-B
Sat 09:30:27 PM 56.7450 35.9750 68° East 512 589 33,000  Level FlightAware ADS-B
Sat 09:31:07 PM 56.7790 36.1360 69° East 513 590 33,000  Level FlightAware ADS-B
Sat 09:31:47 PM 56.8120 36.2940 69° East 514 592 33,000  Level FlightAware ADS-B
Sat 09:32:32 PM 56.8510 36.4790 69° East 513 590 33,000  Level FlightAware ADS-B
Sat 09:33:12 PM 56.8850 36.6410 69° East 510 587 33,000  Level FlightAware ADS-B
Sat 09:33:52 PM 56.9180 36.7970 69° East 508 585 33,000  Level FlightAware ADS-B
Sat 09:34:37 PM 56.9560 36.9780 69° East 510 587 33,000  Level FlightAware ADS-B
Sat 09:35:17 PM 56.9910 37.1420 69° East 510 587 33,000  Level FlightAware ADS-B
Sat 09:36:02 PM 57.0280 37.3210 69° East 509 586 33,000  Level FlightAware ADS-B
Sat 09:36:42 PM 57.0610 37.4820 69° East 509 586 33,000  Level FlightAware ADS-B
Sat 09:37:22 PM 57.0950 37.6450 69° East 510 587 33,000  Level FlightAware ADS-B
Sat 09:38:07 PM 57.1480 37.8090 59° Northeast 512 589 33,000  Level FlightAware ADS-B
Sat 09:38:47 PM 57.2060 37.9490 53° Northeast 514 592 33,000  Level FlightAware ADS-B
Sat 09:39:27 PM 57.2640 38.0870 52° Northeast 515 593 33,000  Level FlightAware ADS-B
Sat 09:40:12 PM 57.3300 38.2460 52° Northeast 515 593 33,000  Level FlightAware ADS-B
Sat 09:40:52 PM 57.3870 38.3800 52° Northeast 514 592 33,000  Level FlightAware ADS-B
Sat 09:41:37 PM 57.4560 38.5380 51° Northeast 508 585 33,000  Level FlightAware ADS-B
Sat 09:42:17 PM 57.5130 38.6740 52° Northeast 507 583 33,000  Level FlightAware ADS-B
Sat 09:43:02 PM 57.5780 38.8280 52° Northeast 507 583 33,000  Level FlightAware ADS-B
Sat 09:43:42 PM 57.6360 38.9660 52° Northeast 506 582 33,000  Level FlightAware ADS-B
Sat 09:44:22 PM 57.6920 39.1010 52° Northeast 506 582 33,000  Level FlightAware ADS-B
Sat 09:45:07 PM 57.7520 39.2500 53° Northeast 505 581 33,000  Level FlightAware ADS-B
Sat 09:45:47 PM 57.7960 39.4170 64° Northeast 508 585 33,000  Level FlightAware ADS-B
Sat 09:46:32 PM 57.8350 39.5990 68° East 507 583 33,000  Level FlightAware ADS-B
Sat 09:47:12 PM 57.8700 39.7630 68° East 508 585 33,000  Level FlightAware ADS-B
Sat 09:47:52 PM 57.9040 39.9240 68° East 509 586 33,000  Level FlightAware ADS-B
Sat 09:48:37 PM 57.9420 40.1100 69° East 510 587 33,000  Level FlightAware ADS-B
Sat 09:49:17 PM 57.9770 40.2770 68° East 511 588 33,000  Level FlightAware ADS-B
Sat 09:50:02 PM 58.0120 40.4480 69° East 512 589 33,000  Level FlightAware ADS-B
Sat 09:50:42 PM 58.0490 40.6300 69° East 513 590 33,000  Level FlightAware ADS-B
Sat 09:51:17 PM 58.0750 40.7630 70° East 514 592 33,000  Level FlightAware ADS-B
Sat 09:52:07 PM 58.1200 40.9880 69° East 515 593 33,000  Level FlightAware ADS-B
Sat 09:52:47 PM 58.1520 41.1490 69° East 514 592 33,000  Level FlightAware ADS-B
Sat 09:53:27 PM 58.1850 41.3170 70° East 516 594 33,000  Level FlightAware ADS-B
Sat 09:54:12 PM 58.2250 41.5280 70° East 515 593 33,000  Level FlightAware ADS-B
Sat 09:54:52 PM 58.2580 41.6980 70° East 516 594 33,000  Level FlightAware ADS-B
Sat 09:55:37 PM 58.2940 41.8850 70° East 516 594 33,000  Level FlightAware ADS-B
Sat 09:56:17 PM 58.3260 42.0580 71° East 517 595 33,000  Level FlightAware ADS-B
Sat 09:56:57 PM 58.3580 42.2300 70° East 516 594 33,000  Level FlightAware ADS-B
Sat 09:57:42 PM 58.3910 42.4050 70° East 516 594 33,000  Level FlightAware ADS-B
Sat 09:58:22 PM 58.4240 42.5870 71° East 516 594 33,000  Level FlightAware ADS-B
Sat 09:59:07 PM 58.4600 42.7820 70° East 518 596 33,000  Level FlightAware ADS-B
Sat 09:59:47 PM 58.4910 42.9580 71° East 519 597 33,000  Level FlightAware ADS-B
Sat 10:00:32 PM 58.5250 43.1460 71° East 520 598 33,000  Level FlightAware ADS-B
Sat 10:01:12 PM 58.5570 43.3290 71° East 521 600 33,000  Level FlightAware ADS-B
Sat 10:01:52 PM 58.5880 43.5040 71° East 521 600 33,000  Level FlightAware ADS-B
Sat 10:02:27 PM 58.6060 43.6060 71° East 521 600 33,000  Level FlightAware ADS-B
Sat 10:03:32 PM 58.6530 43.8830 72° East 523 602 33,000  Level FlightAware ADS-B
Sat 10:04:07 PM 58.6790 44.0330 72° East 523 602 33,000  Level FlightAware ADS-B
Sat 10:04:47 PM 58.7070 44.2040 72° East 524 603 33,000  Level FlightAware ADS-B
Sat 10:05:52 PM 58.7570 44.5030 72° East 524 603 33,000  Level FlightAware ADS-B
Sat 10:06:32 PM 58.7860 44.6820 73° East 526 605 33,000  Level FlightAware ADS-B
Sat 10:07:12 PM 58.8140 44.8520 72° East 528 608 33,000  Level FlightAware ADS-B
Sat 10:07:47 PM 58.8400 45.0130 73° East 527 606 33,000  Level FlightAware ADS-B
Sat 10:08:32 PM 58.8710 45.2090 73° East 528 608 33,000  Level FlightAware ADS-B
Sat 10:09:12 PM 58.8980 45.3820 73° East 529 609 33,000  Level FlightAware ADS-B
Sat 10:10:02 PM 58.9310 45.5950 73° East 530 610 33,000  Level FlightAware ADS-B
Sat 10:10:42 PM 58.9620 45.7960 73° East 530 610 33,000  Level FlightAware ADS-B
Sat 10:11:42 PM 59.0040 46.0640 73° East 530 610 33,000  Level FlightAware ADS-B
Sat 10:12:22 PM 59.0280 46.2190 73° East 530 610 33,000  Level FlightAware ADS-B
Sat 10:13:02 PM 59.0520 46.3740 73° East 530 610 33,000  Level FlightAware ADS-B
Sat 10:13:42 PM 59.0770 46.5290 73° East 530 610 33,000  Level FlightAware ADS-B
Sat 10:14:32 PM 59.1070 46.7230 73° East 530 610 33,000  Level FlightAware ADS-B
Sat 10:15:12 PM 59.1310 46.8790 73° East 530 610 33,000  Level FlightAware ADS-B
Sat 10:15:52 PM 59.1560 47.0340 72° East 530 610 33,000  Level FlightAware ADS-B
Sat 10:16:32 PM 59.1800 47.1900 73° East 530 610 33,000  Level FlightAware ADS-B
Sat 10:17:12 PM 59.2040 47.3450 73° East 530 610 33,000  Level FlightAware ADS-B
Sat 10:17:52 PM 59.2290 47.5010 73° East 530 610 33,000  Level FlightAware ADS-B
Sat 10:18:42 PM 59.2590 47.6960 73° East 530 610 33,000  Level FlightAware ADS-B
Sat 10:19:22 PM 59.2830 47.8520 73° East 530 610 33,000  Level FlightAware ADS-B
Sat 10:20:02 PM 59.3080 48.0080 73° East 530 610 33,000  Level FlightAware ADS-B
Sat 10:20:42 PM 59.3320 48.1640 73° East 530 610 33,000  Level FlightAware ADS-B
Sat 10:23:00 PM 59.3777 48.5756 78° East  Level Estimated
Sat 10:24:00 PM 59.3971 48.7549 78° East  Level Estimated
Sat 10:25:00 PM 59.4163 48.9345 78° East  Level Estimated
Sat 10:26:00 PM 59.4353 49.1142 78° East  Level Estimated
Sat 10:27:00 PM 59.4540 49.2941 78° East  Level Estimated
Sat 10:28:00 PM 59.4725 49.4742 79° East  Level Estimated
Sat 10:28:02 PM 59.6040 50.6800 79° East 529 609 33,000  Level FlightAware ADS-B
Sat 10:28:52 PM 59.6300 50.9200 78° East 526 605 33,000  Level FlightAware ADS-B
Sat 10:29:37 PM 59.6530 51.1320 78° East 524 603 33,000  Level FlightAware ADS-B
Sat 10:30:22 PM 59.6750 51.3430 78° East 525 604 33,000  Level FlightAware ADS-B
Sat 10:31:02 PM 59.6940 51.5260 78° East 523 602 33,000  Level FlightAware ADS-B
Sat 10:31:37 PM 59.7110 51.6940 79° East 523 602 33,000  Level FlightAware ADS-B
Sat 10:32:27 PM 59.7330 51.9090 78° East 519 597 33,000  Level FlightAware ADS-B
Sat 10:33:07 PM 59.7540 52.1190 79° East 517 595 33,000  Level FlightAware ADS-B
Sat 10:33:52 PM 59.7700 52.3260 81° East 519 597 33,000  Level FlightAware ADS-B
Sat 10:35:02 PM 59.7920 52.6450 82° East 516 594 33,000  Level FlightAware ADS-B
Sat 10:35:42 PM 59.8070 52.8440 81° East 515 593 33,000  Level FlightAware ADS-B
Sat 10:36:27 PM 59.8220 53.0560 82° East 516 594 33,000  Level FlightAware ADS-B
Sat 10:37:02 PM 59.8320 53.2040 82° East 514 592 33,000  Level FlightAware ADS-B
Sat 10:37:47 PM 59.8470 53.4250 82° East 513 590 33,000  Level FlightAware ADS-B
Sat 10:38:32 PM 59.8610 53.6270 82° East 512 589 33,000  Level FlightAware ADS-B
Sat 10:39:22 PM 59.8770 53.8770 83° East 512 589 33,000  Level FlightAware ADS-B
Sat 10:40:02 PM 59.8890 54.0690 83° East 510 587 33,000  Level FlightAware ADS-B
Sat 10:40:47 PM 59.9000 54.2530 83° East 508 585 33,000  Level FlightAware ADS-B
Sat 10:41:32 PM 59.9130 54.4680 83° East 509 586 33,000  Level FlightAware ADS-B
Sat 10:42:17 PM 59.9240 54.6600 83° East 510 587 33,000  Level FlightAware ADS-B
Sat 10:42:52 PM 59.9350 54.8440 83° East 511 588 33,000  Level FlightAware ADS-B
Sat 10:43:37 PM 59.9460 55.0540 84° East 513 590 33,000  Level FlightAware ADS-B
Sat 10:44:22 PM 59.9580 55.2700 84° East 512 589 33,000  Level FlightAware ADS-B
Sat 10:45:02 PM 59.9670 55.4510 84° East 512 589 33,000  Level FlightAware ADS-B
Sat 10:45:47 PM 59.9780 55.6680 84° East 513 590 33,000  Level FlightAware ADS-B
Sat 10:46:27 PM 59.9860 55.8230 84° East 513 590 33,000  Level FlightAware ADS-B
Sat 10:47:07 PM 59.9960 56.0340 84° East 510 587 33,000  Level FlightAware ADS-B
Sat 10:47:52 PM 60.0040 56.2170 85° East 508 585 33,000  Level FlightAware ADS-B
Sat 10:49:02 PM 60.0200 56.5670 85° East 503 579 33,000  Level FlightAware ADS-B
Sat 10:49:42 PM 60.0280 56.7570 85° East 502 578 33,000  Level FlightAware ADS-B
Sat 10:50:27 PM 60.0360 56.9720 86° East 502 578 33,000  Level FlightAware ADS-B
Sat 10:51:17 PM 60.0440 57.1690 85° East 500 575 33,000  Level FlightAware ADS-B
Sat 10:52:02 PM 60.0530 57.4050 86° East 498 573 33,000  Level FlightAware ADS-B
Sat 10:52:47 PM 60.0600 57.6090 86° East 498 573 33,000  Level FlightAware ADS-B
Sat 10:53:27 PM 60.0660 57.7850 86° East 498 573 33,000  Level FlightAware ADS-B
Sat 10:54:02 PM 60.0720 57.9470 86° East 497 572 33,000  Level FlightAware ADS-B
Sat 10:55:02 PM 60.0820 58.2380 86° East 497 572 33,000  Level FlightAware ADS-B
Sat 10:55:47 PM 60.0880 58.4310 86° East 500 575 33,000  Level FlightAware ADS-B
Sat 10:56:27 PM 60.0930 58.6210 87° East 500 575 33,000  Level FlightAware ADS-B
Sat 10:57:07 PM 60.0980 58.8120 87° East 504 580 33,000  Level FlightAware ADS-B
Sat 10:57:52 PM 60.1030 59.0190 87° East 505 581 33,000  Level FlightAware ADS-B
Sat 10:58:37 PM 60.1080 59.2290 87° East 510 587 33,000  Level FlightAware ADS-B
Sat 11:00:37 PM 60.1190 59.7750 87° East 504 580 33,000  Level FlightAware ADS-B
Sat 11:01:12 PM 60.1220 59.9420 88° East 505 581 33,000  Level FlightAware ADS-B
Sat 11:01:57 PM 60.1260 60.1710 88° East 508 585 33,000  Level FlightAware ADS-B
Sat 11:02:42 PM 60.1290 60.3660 88° East 509 586 33,000  Level FlightAware ADS-B
Sat 11:03:32 PM 60.1320 60.6050 88° East 508 585 33,000  Level FlightAware ADS-B
Sat 11:04:12 PM 60.1350 60.7650 88° East 508 585 33,000  Level FlightAware ADS-B
Sat 11:04:52 PM 60.1380 60.9250 88° East 508 585 33,000  Level FlightAware ADS-B
Sat 11:05:42 PM 60.1410 61.1260 88° East 508 585 33,000  Level FlightAware ADS-B
Sat 11:06:22 PM 60.1440 61.2860 88° East 508 585 33,000  Level FlightAware ADS-B
Sat 11:06:52 PM 60.1460 61.4070 88° East 508 585 33,000  Level FlightAware ADS-B
Sat 11:07:32 PM 60.1490 61.5670 88° East 508 585 33,000  Level FlightAware ADS-B
Sat 11:08:12 PM 60.1410 61.9260 92° East 502 578 33,000  Level FlightAware ADS-B
Sat 11:08:57 PM 60.1420 62.0990 89° East 502 578 33,000  Level FlightAware ADS-B
Sat 11:09:37 PM 60.1440 62.2580 88° East 502 578 33,000  Level FlightAware ADS-B
Sat 11:10:37 PM 60.1410 62.5730 91° East 498 573 33,000  Level FlightAware ADS-B
Sat 11:11:17 PM 60.1410 62.7310 90° East 498 573 33,000  Level FlightAware ADS-B
Sat 11:11:57 PM 60.1410 62.8880 90° East 498 573 33,000  Level FlightAware ADS-B
Sat 11:12:52 PM 60.1370 63.2270 91° East 503 579 33,000  Level FlightAware ADS-B
Sat 11:13:37 PM 60.1360 63.4480 90° East 500 575 33,000  Level FlightAware ADS-B
Sat 11:14:32 PM 60.1330 63.6980 91° East 498 573 33,000  Level FlightAware ADS-B
Sat 11:15:32 PM 60.1300 63.9440 91° East 497 572 33,000  Level FlightAware ADS-B
Sat 11:16:07 PM 60.1280 64.1270 91° East 498 573 33,000  Level FlightAware ADS-B
Sat 11:16:52 PM 60.1250 64.3450 91° East 497 572 33,000  Level FlightAware ADS-B
Sat 11:17:32 PM 60.1220 64.5170 92° East 498 573 33,000  Level FlightAware ADS-B
Sat 11:18:12 PM 60.1190 64.7090 92° East 504 580 33,000  Level FlightAware ADS-B
Sat 11:18:52 PM 60.1160 64.8850 92° East 506 582 33,000  Level FlightAware ADS-B
Sat 11:19:42 PM 60.1050 65.1110 95° East 509 586 33,000  Level FlightAware ADS-B
Sat 11:20:27 PM 60.0970 65.2750 96° East 504 580 33,000  Level FlightAware ADS-B
Sat 11:21:02 PM 60.0860 65.4960 96° East 500 575 33,000  Level FlightAware ADS-B
Sat 11:22:07 PM 60.0740 65.7740 95° East 497 572 33,000  Level FlightAware ADS-B
Sat 11:22:47 PM 60.0630 65.9720 96° East 500 575 33,000  Level FlightAware ADS-B
Sat 11:23:27 PM 60.0540 66.1490 96° East 499 574 33,000  Level FlightAware ADS-B
Sat 11:24:32 PM 60.0390 66.4380 96° East 497 572 33,000  Level FlightAware ADS-B
Sat 11:25:22 PM 60.0250 66.6780 97° East 497 572 33,000  Level FlightAware ADS-B
Sat 11:25:57 PM 60.0170 66.8250 96° East 497 572 33,000  Level FlightAware ADS-B
Sat 11:26:47 PM 60.0070 67.0200 96° East 497 572 33,000  Level FlightAware ADS-B
Sat 11:27:22 PM 59.9920 67.2340 98° East 496 571 33,000  Level FlightAware ADS-B
Sat 11:28:02 PM 59.9820 67.4010 97° East 496 571 33,000  Level FlightAware ADS-B
Sat 11:28:47 PM 59.9690 67.6010 97° East 492 566 33,000  Level FlightAware ADS-B
Sat 11:29:32 PM 59.9570 67.7850 97° East 492 566 33,000  Level FlightAware ADS-B
Sat 11:30:07 PM 59.9480 67.9300 97° East 492 566 33,000  Level FlightAware ADS-B
Sat 11:30:57 PM 59.9360 68.1220 97° East 492 566 33,000  Level FlightAware ADS-B
Sat 11:31:52 PM 59.9130 68.4290 98° East 490 564 33,000  Level FlightAware ADS-B
Sat 11:32:32 PM 59.9030 68.5810 97° East 490 564 33,000  Level FlightAware ADS-B
Sat 11:33:12 PM 59.8920 68.7330 98° East 490 564 33,000  Level FlightAware ADS-B
Sat 11:33:52 PM 59.8810 68.8850 98° East 490 564 33,000  Level FlightAware ADS-B
Sat 11:35:37 PM 59.8370 69.4420 99° East 488 562 33,000  Level FlightAware ADS-B
Sat 11:36:17 PM 59.8230 69.6130 99° East 487 560 33,000  Level FlightAware ADS-B
Sat 11:36:57 PM 59.8090 69.7880 99° East 485 558 33,000  Level FlightAware ADS-B
Sat 11:37:42 PM 59.7930 69.9850 99° East 485 558 33,000  Level FlightAware ADS-B
Sat 11:38:22 PM 59.7780 70.1620 99° East 486 559 33,000  Level FlightAware ADS-B
Sat 11:39:07 PM 59.7630 70.3430 99° East 486 559 33,000  Level FlightAware ADS-B
Sat 11:39:47 PM 59.7510 70.4930 99° East 486 559 33,000  Level FlightAware ADS-B
Sat 11:41:27 PM 59.7070 70.9650 100° East 485 558 33,000  Level FlightAware ADS-B
Sat 11:42:07 PM 59.6910 71.1480 100° East 487 560 33,000  Level FlightAware ADS-B
Sat 11:42:47 PM 59.6740 71.3230 101° East 488 562 33,000  Level FlightAware ADS-B
Sat 11:43:32 PM 59.6550 71.5210 101° East 488 562 33,000  Level FlightAware ADS-B
Sat 11:44:12 PM 59.6390 71.6960 100° East 487 560 33,000  Level FlightAware ADS-B
Sat 11:44:52 PM 59.6210 71.8800 101° East 487 560 33,000  Level FlightAware ADS-B
Sat 11:45:37 PM 59.6030 72.0600 101° East 484 557 33,000  Level FlightAware ADS-B
Sat 11:46:27 PM 59.5820 72.2700 101° East 479 551 33,000  Level FlightAware ADS-B
Sat 11:47:27 PM 59.5530 72.5440 102° East 477 549 33,000  Level FlightAware ADS-B
Sat 11:48:07 PM 59.5380 72.6970 101° East 477 549 33,000  Level FlightAware ADS-B
Sat 11:49:07 PM 59.5100 72.9500 102° East 477 549 33,000  Level FlightAware ADS-B
Sat 11:50:02 PM 59.4850 73.1830 102° East 477 549 33,000  Level FlightAware ADS-B
Sat 11:50:42 PM 59.4670 73.3470 102° East 476 548 33,000  Level FlightAware ADS-B
Sat 11:51:22 PM 59.4520 73.4920 101° East 476 548 33,000  Level FlightAware ADS-B
Sat 11:52:02 PM 59.4360 73.6360 102° East 476 548 33,000  Level FlightAware ADS-B
Sat 11:52:52 PM 59.4170 73.8160 102° East 476 548 33,000  Level FlightAware ADS-B
Sat 11:53:32 PM 59.4010 73.9590 102° East 476 548 33,000  Level FlightAware ADS-B
Sat 11:54:12 PM 59.3850 74.1030 102° East 476 548 33,000  Level FlightAware ADS-B
Sat 11:54:52 PM 59.3700 74.2470 101° East 476 548 33,000  Level FlightAware ADS-B
Sat 11:55:32 PM 59.3540 74.3910 102° East 476 548 33,000  Level FlightAware ADS-B
Sat 11:56:22 PM 59.3350 74.5700 102° East 476 548 33,000  Level FlightAware ADS-B
Sat 11:57:02 PM 59.3190 74.7140 102° East 476 548 33,000  Level FlightAware ADS-B
Sat 11:57:42 PM 59.3040 74.8570 102° East 476 548 33,000  Level FlightAware ADS-B
Sat 11:58:22 PM 59.2880 75.0010 102° East 476 548 33,000  Level FlightAware ADS-B
Sat 11:59:02 PM 59.2720 75.1440 102° East 476 548 33,000  Level FlightAware ADS-B
Sat 11:59:52 PM 59.2530 75.3230 102° East 476 548 33,000  Level FlightAware ADS-B
Sun 12:02:00 AM 59.2154 75.7054 101° East  Level Estimated
Sun 12:03:00 AM 59.1973 75.8843 101° East  Level Estimated
Sun 12:04:00 AM 59.1791 76.0630 101° East  Level Estimated
Sun 12:05:00 AM 59.1605 76.2416 101° East  Level Estimated
Sun 12:06:00 AM 59.1418 76.4199 102° East  Level Estimated
Sun 12:07:00 AM 59.1228 76.5981 102° East  Level Estimated
Sun 12:08:00 AM 59.1035 76.7760 102° East  Level Estimated
Sun 12:09:00 AM 59.0840 76.9538 102° East  Level Estimated
Sun 12:10:00 AM 59.0643 77.1314 102° East  Level Estimated
Sun 12:11:00 AM 59.0443 77.3087 102° East  Level Estimated
Sun 12:12:00 AM 59.0241 77.4859 102° East  Level Estimated
Sun 12:13:00 AM 59.0036 77.6628 103° East  Level Estimated
Sun 12:14:00 AM 58.9829 77.8395 103° East  Level Estimated
Sun 12:15:00 AM 58.9620 78.0160 103° East  Level Estimated
Sun 12:16:00 AM 58.9408 78.1923 103° East  Level Estimated
Sun 12:17:00 AM 58.9194 78.3684 103° East  Level Estimated
Sun 12:18:00 AM 58.8977 78.5443 103° East  Level Estimated
Sun 12:19:00 AM 58.8758 78.7199 103° East  Level Estimated
Sun 12:20:00 AM 58.8537 78.8953 104° East  Level Estimated
Sun 12:21:00 AM 58.8313 79.0705 104° East  Level Estimated
Sun 12:22:00 AM 58.8087 79.2454 104° East  Level Estimated
Sun 12:23:00 AM 58.7858 79.4202 104° East  Level Estimated
Sun 12:24:00 AM 58.7627 79.5947 104° East  Level Estimated
Sun 12:25:00 AM 58.7394 79.7689 104° East  Level Estimated
Sun 12:26:00 AM 58.7159 79.9430 105° East  Level Estimated
Sun 12:27:00 AM 58.6921 80.1168 105° East  Level Estimated
Sun 12:28:00 AM 58.6680 80.2903 105° East  Level Estimated
Sun 12:29:00 AM 58.6438 80.4636 105° East  Level Estimated
Sun 12:30:00 AM 58.6193 80.6367 105° East  Level Estimated
Sun 12:31:00 AM 58.5946 80.8095 105° East  Level Estimated
Sun 12:32:00 AM 58.5696 80.9821 105° East  Level Estimated
Sun 12:33:00 AM 58.5444 81.1545 106° East  Level Estimated
Sun 12:34:00 AM 58.5190 81.3266 106° East  Level Estimated
Sun 12:35:00 AM 58.4934 81.4984 106° East  Level Estimated
Sun 12:36:00 AM 58.4675 81.6700 106° East  Level Estimated
Sun 12:37:00 AM 58.4414 81.8413 106° East  Level Estimated
Sun 12:38:00 AM 58.4151 82.0124 106° East  Level Estimated
Sun 12:39:00 AM 58.3885 82.1832 106° East  Level Estimated
Sun 12:40:00 AM 58.3617 82.3538 107° East  Level Estimated
Sun 12:41:00 AM 58.3347 82.5241 107° East  Level Estimated
Sun 12:42:00 AM 58.3075 82.6941 107° East  Level Estimated
Sun 12:43:00 AM 58.2800 82.8639 107° East  Level Estimated
Sun 12:44:00 AM 58.2523 83.0334 107° East  Level Estimated
Sun 12:45:00 AM 58.2244 83.2027 107° East  Level Estimated
Sun 12:46:00 AM 58.1963 83.3717 107° East  Level Estimated
Sun 12:47:00 AM 58.1679 83.5404 108° East  Level Estimated
Sun 12:48:00 AM 58.1393 83.7088 108° East  Level Estimated
Sun 12:49:00 AM 58.1105 83.8770 108° East  Level Estimated
Sun 12:50:00 AM 58.0815 84.0449 108° East  Level Estimated
Sun 12:51:00 AM 58.0523 84.2125 108° East  Level Estimated
Sun 12:52:00 AM 58.0228 84.3799 108° East  Level Estimated
Sun 12:53:00 AM 57.9931 84.5470 108° East  Level Estimated
Sun 12:54:00 AM 57.9632 84.7138 109° East  Level Estimated
Sun 12:55:00 AM 57.9331 84.8803 109° East  Level Estimated
Sun 12:56:00 AM 57.9028 85.0465 109° East  Level Estimated
Sun 12:57:00 AM 57.8722 85.2125 109° East  Level Estimated
Sun 12:58:00 AM 57.8414 85.3781 109° East  Level Estimated
Sun 12:59:00 AM 57.8105 85.5435 109° East  Level Estimated
Sun 01:00:00 AM 57.7793 85.7086 109° East  Level Estimated
Sun 01:01:00 AM 57.7478 85.8735 110° East  Level Estimated
Sun 01:02:00 AM 57.7162 86.0380 110° East  Level Estimated
Sun 01:03:00 AM 57.6844 86.2022 110° East  Level Estimated
Sun 01:04:00 AM 57.6523 86.3662 110° East  Level Estimated
Sun 01:05:00 AM 57.6200 86.5299 110° East  Level Estimated
Sun 01:06:00 AM 57.5876 86.6932 110° East  Level Estimated
Sun 01:07:00 AM 57.5549 86.8563 110° East  Level Estimated
Sun 01:07:52 AM 56.2990 91.5340 111° Southeast 490 564 33,000  Level FlightAware ADS-B
Sun 01:08:00 AM 57.5220 87.0191 111° Southeast  Level Estimated
Sun 01:08:42 AM 56.2450 91.7200 118° Southeast 489 563 33,000  Level FlightAware ADS-B
Sun 01:09:22 AM 56.2050 91.8620 117° Southeast 482 555 33,000  Level FlightAware ADS-B
Sun 01:10:07 AM 56.1580 92.0230 118° Southeast 482 555 33,000  Level FlightAware ADS-B
Sun 01:10:47 AM 56.1190 92.1530 118° Southeast 482 555 33,000  Level FlightAware ADS-B
Sun 01:11:27 AM 56.0790 92.2920 117° Southeast 479 551 33,000  Level FlightAware ADS-B
Sun 01:12:12 AM 56.0340 92.4430 118° Southeast 479 551 33,000  Level FlightAware ADS-B
Sun 01:13:07 AM 55.9740 92.6450 118° Southeast 480 552 33,000  Level FlightAware ADS-B
Sun 01:13:47 AM 55.9330 92.7830 118° Southeast 480 552 33,000  Level FlightAware ADS-B
Sun 01:14:27 AM 55.8930 92.9160 118° Southeast 482 555 33,000  Level FlightAware ADS-B
Sun 01:15:17 AM 55.8490 93.0650 118° Southeast 482 555 33,000  Level FlightAware ADS-B
Sun 01:15:57 AM 55.8130 93.1850 118° Southeast 482 555 33,000  Level FlightAware ADS-B
Sun 01:16:37 AM 55.7770 93.3040 118° Southeast 482 555 33,000  Level FlightAware ADS-B
Sun 01:17:17 AM 55.7420 93.4230 118° Southeast 482 555 33,000  Level FlightAware ADS-B
Sun 01:17:57 AM 55.7060 93.5410 118° Southeast 482 555 33,000 1,412 Level FlightAware ADS-B
Sun 01:18:42 AM 55.6110 93.8240 121° Southeast 498 573 35,000 558 Climbing FlightAware ADS-B
Sun 01:21:00 AM 55.5167 94.1651 116° Southeast  Level Estimated
Sun 01:21:32 AM 55.4160 94.4270 116° Southeast 497 572 35,000  Level FlightAware ADS-B
Sun 01:22:12 AM 55.3750 94.5550 119° Southeast 497 572 35,000  Level FlightAware ADS-B
Sun 01:22:57 AM 55.3190 94.7260 120° Southeast 497 572 35,000  Level FlightAware ADS-B
Sun 01:23:37 AM 55.2780 94.8550 119° Southeast 497 572 35,000  Level FlightAware ADS-B
Sun 01:24:47 AM 55.1940 95.1120 120° Southeast 497 572 35,000  Level FlightAware ADS-B
Sun 01:25:27 AM 55.1550 95.2310 120° Southeast 497 572 35,000  Level FlightAware ADS-B
Sun 01:26:07 AM 55.1160 95.3490 120° Southeast 497 572 35,000  Level FlightAware ADS-B
Sun 01:26:47 AM 55.0760 95.4670 121° Southeast 497 572 35,000  Level FlightAware ADS-B
Sun 01:27:27 AM 55.0370 95.5860 120° Southeast 497 572 35,000  Level FlightAware ADS-B
Sun 01:28:17 AM 54.9880 95.7330 120° Southeast 497 572 35,000  Level FlightAware ADS-B
Sun 01:28:57 AM 54.9490 95.8510 120° Southeast 497 572 35,000  Level FlightAware ADS-B
Sun 01:29:37 AM 54.9100 95.9690 120° Southeast 497 572 35,000  Level FlightAware ADS-B
Sun 01:30:17 AM 54.8710 96.0870 120° Southeast 497 572 35,000  Level FlightAware ADS-B
Sun 01:31:07 AM 54.8220 96.2340 120° Southeast 497 572 35,000  Level FlightAware ADS-B
Sun 01:31:47 AM 54.7830 96.3510 120° Southeast 497 572 35,000  Level FlightAware ADS-B
Sun 01:32:27 AM 54.7440 96.4680 120° Southeast 497 572 35,000  Level FlightAware ADS-B
Sun 01:33:07 AM 54.7050 96.5860 120° Southeast 497 572 35,000  Level FlightAware ADS-B
Sun 01:33:47 AM 54.6660 96.7030 120° Southeast 497 572 35,000 -122 Level FlightAware ADS-B
Sun 01:36:00 AM 54.5681 97.0179 118° Southeast  Level Estimated
Sun 01:37:00 AM 54.5237 97.1594 118° Southeast  Level Estimated
Sun 01:38:00 AM 54.4791 97.3007 118° Southeast  Level Estimated
Sun 01:39:00 AM 54.4343 97.4416 119° Southeast  Level Estimated
Sun 01:40:00 AM 54.3894 97.5823 119° Southeast  Level Estimated
Sun 01:41:00 AM 54.3443 97.7226 119° Southeast  Level Estimated
Sun 01:42:00 AM 54.2990 97.8626 119° Southeast  Level Estimated
Sun 01:43:00 AM 54.2536 98.0023 119° Southeast  Level Estimated
Sun 01:44:00 AM 54.2080 98.1417 119° Southeast  Level Estimated
Sun 01:45:00 AM 54.1623 98.2808 119° Southeast  Level Estimated
Sun 01:46:00 AM 54.1164 98.4196 119° Southeast  Level Estimated
Sun 01:47:00 AM 54.0703 98.5580 120° Southeast  Level Estimated
Sun 01:48:00 AM 54.0241 98.6962 120° Southeast  Level Estimated
Sun 01:49:00 AM 53.9777 98.8341 120° Southeast  Level Estimated
Sun 01:50:00 AM 53.9312 98.9716 120° Southeast  Level Estimated
Sun 01:51:00 AM 53.8845 99.1089 120° Southeast  Level Estimated
Sun 01:52:00 AM 53.8377 99.2458 120° Southeast  Level Estimated
Sun 01:53:00 AM 53.7907 99.3824 120° Southeast  Level Estimated
Sun 01:54:00 AM 53.7435 99.5188 120° Southeast  Level Estimated
Sun 01:55:00 AM 53.6962 99.6548 120° Southeast  Level Estimated
Sun 01:56:00 AM 53.6488 99.7905 121° Southeast  Level Estimated
Sun 01:57:00 AM 53.6012 99.9259 121° Southeast  Level Estimated
Sun 01:58:00 AM 53.5534 100.0610 121° Southeast  Level Estimated
Sun 01:59:00 AM 53.5055 100.1958 121° Southeast  Level Estimated
Sun 02:00:00 AM 53.4574 100.3303 121° Southeast  Level Estimated
Sun 02:01:00 AM 53.4092 100.4645 121° Southeast  Level Estimated
Sun 02:02:00 AM 53.3608 100.5984 121° Southeast  Level Estimated
Sun 02:03:00 AM 53.3123 100.7319 121° Southeast  Level Estimated
Sun 02:04:00 AM 53.2636 100.8652 121° Southeast  Level Estimated
Sun 02:05:00 AM 53.2148 100.9982 121° Southeast  Level Estimated
Sun 02:06:00 AM 53.1658 101.1309 122° Southeast  Level Estimated
Sun 02:07:00 AM 53.1167 101.2632 122° Southeast  Level Estimated
Sun 02:08:00 AM 53.0675 101.3953 122° Southeast  Level Estimated
Sun 02:09:00 AM 53.0181 101.5270 122° Southeast  Level Estimated
Sun 02:10:00 AM 52.9685 101.6585 122° Southeast  Level Estimated
Sun 02:11:00 AM 52.9188 101.7897 122° Southeast  Level Estimated
Sun 02:12:00 AM 52.8690 101.9205 122° Southeast  Level Estimated
Sun 02:13:00 AM 52.8190 102.0511 122° Southeast  Level Estimated
Sun 02:14:00 AM 52.7689 102.1814 122° Southeast  Level Estimated
Sun 02:15:00 AM 52.7186 102.3113 123° Southeast  Level Estimated
Sun 02:16:00 AM 52.6682 102.4410 123° Southeast  Level Estimated
Sun 02:17:00 AM 52.6176 102.5703 123° Southeast  Level Estimated
Sun 02:18:00 AM 52.5670 102.6994 123° Southeast  Level Estimated
Sun 02:19:00 AM 52.5161 102.8281 123° Southeast  Level Estimated
Sun 02:20:00 AM 52.4651 102.9566 123° Southeast  Level Estimated
Sun 02:21:00 AM 52.4140 103.0848 123° Southeast  Level Estimated
Sun 02:22:00 AM 52.3628 103.2126 123° Southeast  Level Estimated
Sun 02:23:00 AM 52.3114 103.3402 123° Southeast  Level Estimated
Sun 02:24:00 AM 52.2599 103.4675 123° Southeast  Level Estimated
Sun 02:25:00 AM 52.2082 103.5945 124° Southeast  Level Estimated
Sun 02:26:00 AM 52.1564 103.7212 124° Southeast  Level Estimated
Sun 02:27:00 AM 52.1045 103.8475 124° Southeast  Level Estimated
Sun 02:28:00 AM 52.0524 103.9736 124° Southeast  Level Estimated
Sun 02:29:00 AM 52.0002 104.0994 124° Southeast  Level Estimated
Sun 02:30:00 AM 51.9479 104.2250 124° Southeast  Level Estimated
Sun 02:31:00 AM 51.8954 104.3502 124° Southeast  Level Estimated
Sun 02:32:00 AM 51.8428 104.4751 124° Southeast  Level Estimated
Sun 02:33:00 AM 51.7901 104.5997 124° Southeast  Level Estimated
Sun 02:34:00 AM 51.7372 104.7241 124° Southeast  Level Estimated
Sun 02:35:00 AM 51.6842 104.8481 125° Southeast  Level Estimated
Sun 02:36:00 AM 51.6311 104.9719 125° Southeast  Level Estimated
Sun 02:37:00 AM 51.5779 105.0953 125° Southeast  Level Estimated
Sun 02:38:00 AM 51.5245 105.2185 125° Southeast  Level Estimated
Sun 02:39:00 AM 51.4710 105.3414 125° Southeast  Level Estimated
Sun 02:40:00 AM 51.4174 105.4640 125° Southeast  Level Estimated
Sun 02:41:00 AM 51.3636 105.5863 125° Southeast  Level Estimated
Sun 02:42:00 AM 51.3097 105.7083 125° Southeast  Level Estimated
Sun 02:43:00 AM 51.2557 105.8301 125° Southeast  Level Estimated
Sun 02:44:00 AM 51.2015 105.9515 125° Southeast  Level Estimated
Sun 02:45:00 AM 51.1473 106.0727 125° Southeast  Level Estimated
Sun 02:46:00 AM 51.0928 106.1936 126° Southeast  Level Estimated
Sun 02:47:00 AM 51.0383 106.3142 126° Southeast  Level Estimated
Sun 02:48:00 AM 50.9837 106.4345 126° Southeast  Level Estimated
Sun 02:49:00 AM 50.9289 106.5545 126° Southeast  Level Estimated
Sun 02:50:00 AM 50.8740 106.6743 126° Southeast  Level Estimated
Sun 02:51:00 AM 50.8190 106.7937 126° Southeast  Level Estimated
Sun 02:52:00 AM 50.7639 106.9129 126° Southeast  Level Estimated
Sun 02:53:00 AM 50.7086 107.0318 126° Southeast  Level Estimated
Sun 02:54:00 AM 50.6533 107.1505 126° Southeast  Level Estimated
Sun 02:55:00 AM 50.5978 107.2688 126° Southeast  Level Estimated
Sun 02:56:00 AM 50.5421 107.3869 127° Southeast  Level Estimated
Sun 02:57:00 AM 50.4864 107.5046 127° Southeast  Level Estimated
Sun 02:58:00 AM 50.4305 107.6222 127° Southeast  Level Estimated
Sun 02:59:00 AM 50.3746 107.7394 127° Southeast  Level Estimated
Sun 03:00:00 AM 50.3185 107.8564 127° Southeast  Level Estimated
Sun 03:01:00 AM 50.2623 107.9730 127° Southeast  Level Estimated
Sun 03:02:00 AM 50.2060 108.0894 127° Southeast  Level Estimated
Sun 03:03:00 AM 50.1495 108.2056 127° Southeast  Level Estimated
Sun 03:04:00 AM 50.0930 108.3214 127° Southeast  Level Estimated
Sun 03:05:00 AM 50.0363 108.4370 127° Southeast  Level Estimated
Sun 03:06:00 AM 49.9795 108.5523 127° Southeast  Level Estimated
Sun 03:07:00 AM 49.9226 108.6674 128° Southeast  Level Estimated
Sun 03:08:00 AM 49.8656 108.7821 128° Southeast  Level Estimated
Sun 03:09:00 AM 49.8085 108.8966 128° Southeast  Level Estimated
Sun 03:10:00 AM 49.7512 109.0108 128° Southeast  Level Estimated
Sun 03:11:00 AM 49.6939 109.1248 128° Southeast  Level Estimated
Sun 03:12:00 AM 49.6364 109.2385 128° Southeast  Level Estimated
Sun 03:13:00 AM 49.5788 109.3519 128° Southeast  Level Estimated
Sun 03:14:00 AM 49.5212 109.4650 128° Southeast  Level Estimated
Sun 03:15:00 AM 49.4634 109.5779 128° Southeast  Level Estimated
Sun 03:16:00 AM 49.4055 109.6905 128° Southeast  Level Estimated
Sun 03:17:00 AM 49.3475 109.8029 128° Southeast  Level Estimated
Sun 03:18:00 AM 49.2893 109.9150 128° Southeast  Level Estimated
Sun 03:19:00 AM 49.2311 110.0268 129° Southeast  Level Estimated
Sun 03:20:00 AM 49.1728 110.1384 129° Southeast  Level Estimated
Sun 03:21:00 AM 49.1143 110.2497 129° Southeast  Level Estimated
Sun 03:22:00 AM 49.0558 110.3607 129° Southeast  Level Estimated
Sun 03:23:00 AM 48.9971 110.4715 129° Southeast  Level Estimated
Sun 03:24:00 AM 48.9384 110.5820 129° Southeast  Level Estimated
Sun 03:25:00 AM 48.8795 110.6922 129° Southeast  Level Estimated
Sun 03:26:00 AM 48.8205 110.8022 129° Southeast  Level Estimated
Sun 03:27:00 AM 48.7615 110.9119 129° Southeast  Level Estimated
Sun 03:28:00 AM 48.7023 111.0214 129° Southeast  Level Estimated
Sun 03:29:00 AM 48.6430 111.1306 129° Southeast  Level Estimated
Sun 03:30:00 AM 48.5836 111.2396 129° Southeast  Level Estimated
Sun 03:31:00 AM 48.5241 111.3483 130° Southeast  Level Estimated
Sun 03:32:00 AM 48.4645 111.4568 130° Southeast  Level Estimated
Sun 03:33:00 AM 48.4048 111.5650 130° Southeast  Level Estimated
Sun 03:34:00 AM 48.3450 111.6729 130° Southeast  Level Estimated
Sun 03:35:00 AM 48.2851 111.7806 130° Southeast  Level Estimated
Sun 03:36:00 AM 48.2251 111.8880 130° Southeast  Level Estimated
Sun 03:37:00 AM 48.1650 111.9952 130° Southeast  Level Estimated
Sun 03:38:00 AM 48.1049 112.1021 130° Southeast  Level Estimated
Sun 03:39:00 AM 48.0446 112.2088 130° Southeast  Level Estimated
Sun 03:40:00 AM 47.9842 112.3152 130° Southeast  Level Estimated
Sun 03:41:00 AM 47.9237 112.4214 130° Southeast  Level Estimated
Sun 03:42:00 AM 47.8631 112.5274 130° Southeast  Level Estimated
Sun 03:43:00 AM 47.8024 112.6331 131° Southeast  Level Estimated
Sun 03:44:00 AM 47.7416 112.7385 131° Southeast  Level Estimated
Sun 03:45:00 AM 47.6807 112.8437 131° Southeast  Level Estimated
Sun 03:46:00 AM 47.6198 112.9486 131° Southeast  Level Estimated
Sun 03:47:00 AM 47.5587 113.0534 131° Southeast  Level Estimated
Sun 03:48:00 AM 47.4975 113.1578 131° Southeast  Level Estimated
Sun 03:49:00 AM 47.4363 113.2620 131° Southeast  Level Estimated
Sun 03:50:00 AM 47.3749 113.3660 131° Southeast  Level Estimated
Sun 03:51:00 AM 47.3135 113.4697 131° Southeast  Level Estimated
Sun 03:52:00 AM 47.2519 113.5732 131° Southeast  Level Estimated
Sun 03:53:00 AM 47.1903 113.6765 131° Southeast  Level Estimated
Sun 03:54:00 AM 47.1286 113.7795 131° Southeast  Level Estimated
Sun 03:55:00 AM 47.0668 113.8823 131° Southeast  Level Estimated
Sun 03:56:00 AM 47.0048 113.9848 132° Southeast  Level Estimated
Sun 03:57:00 AM 46.9428 114.0871 132° Southeast  Level Estimated
Sun 03:58:00 AM 46.8808 114.1892 132° Southeast  Level Estimated
Sun 03:59:00 AM 46.8186 114.2910 132° Southeast  Level Estimated
Sun 04:00:00 AM 46.7563 114.3926 132° Southeast  Level Estimated
Sun 04:01:00 AM 46.6940 114.4939 132° Southeast  Level Estimated
Sun 04:02:00 AM 46.6315 114.5950 132° Southeast  Level Estimated
Sun 04:03:00 AM 46.5690 114.6959 132° Southeast  Level Estimated
Sun 04:04:00 AM 46.5063 114.7966 132° Southeast  Level Estimated
Sun 04:05:00 AM 46.4436 114.8970 132° Southeast  Level Estimated
Sun 04:06:00 AM 46.3808 114.9972 132° Southeast  Level Estimated
Sun 04:07:00 AM 46.3179 115.0972 132° Southeast  Level Estimated
Sun 04:08:00 AM 46.2549 115.1969 132° Southeast  Level Estimated
Sun 04:09:00 AM 46.1919 115.2964 132° Southeast  Level Estimated
Sun 04:10:00 AM 46.1287 115.3957 133° Southeast  Level Estimated
Sun 04:11:00 AM 46.0655 115.4947 133° Southeast  Level Estimated
Sun 04:12:00 AM 46.0022 115.5935 133° Southeast  Level Estimated
Sun 04:13:00 AM 45.9387 115.6921 133° Southeast  Level Estimated
Sun 04:14:00 AM 45.8753 115.7905 133° Southeast  Level Estimated
Sun 04:15:00 AM 45.8117 115.8886 133° Southeast  Level Estimated
Sun 04:16:00 AM 45.7480 115.9865 133° Southeast  Level Estimated
Sun 04:17:00 AM 45.6843 116.0842 133° Southeast  Level Estimated
Sun 04:18:00 AM 45.6204 116.1817 133° Southeast  Level Estimated
Sun 04:19:00 AM 45.5565 116.2790 133° Southeast  Level Estimated
Sun 04:20:00 AM 45.4925 116.3760 133° Southeast  Level Estimated
Sun 04:21:00 AM 45.4285 116.4728 133° Southeast  Level Estimated
Sun 04:22:00 AM 45.3643 116.5694 133° Southeast  Level Estimated
Sun 04:23:00 AM 45.3001 116.6658 133° Southeast  Level Estimated
Sun 04:24:00 AM 45.2357 116.7619 134° Southeast  Level Estimated
Sun 04:25:00 AM 45.1713 116.8578 134° Southeast  Level Estimated
Sun 04:26:00 AM 45.1069 116.9536 134° Southeast  Level Estimated
Sun 04:27:00 AM 45.0423 117.0491 134° Southeast  Level Estimated
Sun 04:28:00 AM 44.9777 117.1444 134° Southeast  Level Estimated
Sun 04:29:00 AM 44.9129 117.2394 134° Southeast  Level Estimated
Sun 04:30:00 AM 44.8481 117.3343 134° Southeast  Level Estimated
Sun 04:31:00 AM 44.7833 117.4289 134° Southeast  Level Estimated
Sun 04:32:00 AM 44.7183 117.5234 134° Southeast  Level Estimated
Sun 04:33:00 AM 44.6533 117.6176 134° Southeast  Level Estimated
Sun 04:34:00 AM 44.5882 117.7116 134° Southeast  Level Estimated
Sun 04:35:00 AM 44.5230 117.8054 134° Southeast  Level Estimated
Sun 04:36:00 AM 44.4577 117.8990 134° Southeast  Level Estimated
Sun 04:37:00 AM 44.3924 117.9924 134° Southeast  Level Estimated
Sun 04:38:00 AM 44.3270 118.0855 134° Southeast  Level Estimated
Sun 04:39:00 AM 44.2615 118.1785 135° Southeast  Level Estimated
Sun 04:40:00 AM 44.1959 118.2713 135° Southeast  Level Estimated
Sun 04:41:00 AM 44.1303 118.3638 135° Southeast  Level Estimated
Sun 04:42:00 AM 44.0646 118.4562 135° Southeast  Level Estimated
Sun 04:43:00 AM 43.9988 118.5483 135° Southeast  Level Estimated
Sun 04:44:00 AM 43.9329 118.6402 135° Southeast  Level Estimated
Sun 04:45:00 AM 43.8670 118.7320 135° Southeast  Level Estimated
Sun 04:46:00 AM 43.8010 118.8235 135° Southeast  Level Estimated
Sun 04:47:00 AM 43.7349 118.9148 135° Southeast  Level Estimated
Sun 04:48:00 AM 43.6688 119.0060 135° Southeast  Level Estimated
Sun 04:49:00 AM 43.6026 119.0969 135° Southeast  Level Estimated
Sun 04:50:00 AM 43.5363 119.1876 135° Southeast  Level Estimated
Sun 04:51:00 AM 43.4699 119.2782 135° Southeast  Level Estimated
Sun 04:52:00 AM 43.4034 119.3685 135° Southeast  Level Estimated
Sun 04:53:00 AM 43.3369 119.4586 135° Southeast  Level Estimated
Sun 04:54:00 AM 43.2704 119.5485 135° Southeast  Level Estimated
Sun 04:55:00 AM 43.2037 119.6383 136° Southeast  Level Estimated
Sun 04:56:00 AM 43.1370 119.7278 136° Southeast  Level Estimated
Sun 04:57:00 AM 43.0702 119.8172 136° Southeast  Level Estimated
Sun 04:58:00 AM 43.0033 119.9063 136° Southeast  Level Estimated
Sun 04:59:00 AM 42.9364 119.9953 136° Southeast  Level Estimated
Sun 05:00:00 AM 42.8694 120.0840 136° Southeast  Level Estimated
Sun 05:01:00 AM 42.8023 120.1726 136° Southeast  Level Estimated
Sun 05:02:00 AM 42.7352 120.2610 136° Southeast  Level Estimated
Sun 05:03:00 AM 42.6680 120.3492 136° Southeast  Level Estimated
Sun 05:04:00 AM 42.6007 120.4372 136° Southeast  Level Estimated
Sun 05:05:00 AM 42.5334 120.5250 136° Southeast  Level Estimated
Sun 05:06:00 AM 42.4660 120.6126 136° Southeast  Level Estimated
Sun 05:07:00 AM 42.3985 120.7000 136° Southeast  Level Estimated
Sun 05:07:32 AM 37.1350 126.2130 136° Southeast 285 328 8,800  Level FlightAware ADS-B
Sun 05:07:57 AM 37.1310 126.2620 96° East 286 329 8,700 -480 Descending FlightAware ADS-B
Sun 05:08:00 AM 42.3310 120.7873 136° Southeast  Level Estimated
Sun 05:08:22 AM 37.1280 126.3010 95° East 286 329 8,400  Level FlightAware ADS-B
Sun 05:08:47 AM 37.1240 126.3420 97° East 286 329 7,900 -424 Descending FlightAware ADS-B
Sun 05:09:47 AM 37.1160 126.4400 96° East 286 329 7,800 -67 Descending FlightAware ADS-B
Sun 05:10:17 AM 37.1120 126.4890 96° East 278 320 7,800  Level FlightAware ADS-B
Sun 05:10:52 AM 37.1090 126.5370 94° East 277 319 7,800 -255 Level FlightAware ADS-B
Sun 05:13:00 AM 37.3046 126.4901 349° North  Level Estimated
Sun 05:13:02 AM 37.1120 126.7210 349° North 238 274 7,100  Level FlightAware ADS-B
Sun 05:15:00 AM 37.2693 126.6022 329° Northwest  Level Estimated
Sun 05:15:12 AM 37.2250 126.6700 329° Northwest 199 229 5,200  Level FlightAware ADS-B
Sun 05:15:52 AM 37.2530 126.6450 325° Northwest 201 231 4,800 -960 Descending FlightAware ADS-B
Sun 05:16:27 AM 37.2830 126.6190 325° Northwest 201 231 4,000 -1,200 Descending FlightAware ADS-B
Sun 05:16:42 AM 37.2920 126.6100 321° Northwest 201 231 3,800 -800 Descending FlightAware ADS-B
Sun 05:19:00 AM 37.4666 126.4527 324° Northwest  Level Estimated
Sun 05:20:00 AM 37.4691 126.4505 324° Northwest  Level Estimated
Sun 05:21:00 AM 37.4691 126.4505 335° Northwest  Level Estimated
Sun 05:22:00 AM 37.4691 126.4505 335° Northwest  Level Estimated
Sun 05:23:00 AM 37.4691 126.4505 335° Northwest  Level Estimated
Sun 05:24:00 AM 37.4691 126.4505 335° Northwest  Level Estimated
Sun 05:25:00 AM 37.4691 126.4505 335° Northwest  Level Estimated
Sun 05:26:00 AM 37.4691 126.4505 335° Northwest  Level Estimated
Sun 05:27:00 AM 37.4691 126.4505 335° Northwest  Level Estimated
Sun 05:28:00 AM 37.4691 126.4505 335° Northwest  Level Estimated
Sun 05:29:00 AM 37.4691 126.4505 335° Northwest  Level Estimated
Sun 05:30:00 AM 37.4691 126.4505 335° Northwest  Level Estimated
Sun 05:31:00 AM 37.4691 126.4505 335° Northwest  Level Estimated
Sun 05:32:00 AM 37.4691 126.4505 335° Northwest  Level Estimated
Sun 05:33:00 AM 37.4691 126.4505 335° Northwest  Level Estimated
Sun 05:34:00 AM 37.4691 126.4505 335° Northwest  Level Estimated
Sun 05:35:00 AM 37.4691 126.4505 335° Northwest  Level Estimated
Sun 05:36:00 AM 37.4691 126.4505 335° Northwest  Level Estimated
Sun 05:37:00 AM 37.4691 126.4505 335° Northwest  Level Estimated
Sun 05:38:00 AM 37.4691 126.4505 335° Northwest  Level Estimated
Sun 05:39:00 AM 37.4691 126.4505 335° Northwest  Level Estimated
Sun 05:40:00 AM 37.4691 126.4505 335° Northwest  Level Estimated
Sun 05:41:00 AM 37.4691 126.4505 335° Northwest  Level Estimated
Sun 05:42:00 AM 37.4691 126.4505 335° Northwest  Level Estimated
Sun 05:43:00 AM 37.4691 126.4505 335° Northwest  Level Estimated
Sun 05:44:00 AM 37.4691 126.4505 335° Northwest  Level Estimated
Sun 05:45:00 AM 37.4691 126.4505 335° Northwest  Level Estimated
Sun 05:46:00 AM 37.4691 126.4505 335° Northwest  Level Estimated
Sun 05:47:00 AM 37.4691 126.4505 335° Northwest  Level Estimated
Sun 05:48:00 AM 37.4691 126.4505 335° Northwest  Level Estimated
Sun 05:49:00 AM 37.4691 126.4505 335° Northwest  Level Estimated
Sun 05:50:00 AM 37.4691 126.4505 335° Northwest  Level Estimated
Sun 05:51:00 AM 37.4691 126.4505 335° Northwest  Level Estimated
Sun 05:52:00 AM 37.4691 126.4505 335° Northwest  Level Estimated
Sun 05:53:00 AM 37.4691 126.4505 335° Northwest  Level Estimated
Sun 05:54:00 AM 37.4691 126.4505 335° Northwest  Level Estimated
Sun 05:55:00 AM 37.4691 126.4505 335° Northwest  Level Estimated
Sun 05:56:00 AM 37.4691 126.4505 335° Northwest  Level Estimated
Sun 05:57:00 AM 37.4691 126.4505 335° Northwest  Level Estimated
Sun 05:58:00 AM 37.4691 126.4505 335° Northwest  Level Estimated
Sun 05:59:00 AM 37.4691 126.4505 335° Northwest  Level Estimated
Sun 06:00:00 AM 37.4691 126.4505 335° Northwest  Level Estimated
Sun 06:01:00 AM 37.4691 126.4505 335° Northwest  Level Estimated
Sun 06:02:00 AM 37.4691 126.4505 335° Northwest  Level Estimated
Sun 06:03:00 AM 37.4691 126.4505 335° Northwest  Level Estimated
Sun 06:04:00 AM 37.4691 126.4505 335° Northwest  Level Estimated
Sun 06:05:00 AM 37.4691 126.4505 335° Northwest  Level Estimated
Sun 06:06:00 AM 37.4691 126.4505 335° Northwest  Level Estimated
Sun 06:07:00 AM 37.4691 126.4505 335° Northwest  Level Estimated
Sun 06:08:00 AM 37.4691 126.4505 335° Northwest  Level Estimated
Sun 06:09:00 AM 37.4691 126.4505 335° Northwest  Level Estimated
Sun 06:10:00 AM 37.4691 126.4505 335° Northwest  Level Estimated
Sun 06:11:00 AM 37.4691 126.4505 335° Northwest  Level Estimated
Sun 06:12:00 AM 37.4691 126.4505 335° Northwest  Level Estimated
Sun 06:13:00 AM 37.4691 126.4505 335° Northwest  Level Estimated
Sun 06:14:00 AM 37.4691 126.4505 335° Northwest  Level Estimated
Sun 06:15:00 AM 37.4691 126.4505 335° Northwest  Level Estimated
Sun 06:16:00 AM 37.4691 126.4505 335° Northwest  Level Estimated
Sun 06:17:00 AM 37.4691 126.4505 335° Northwest  Level Estimated
Sun 06:18:00 AM 37.4691 126.4505 335° Northwest  Level Estimated
Sun 06:19:00 AM 37.4691 126.4505 335° Northwest  Level Estimated
Sun 06:20:00 AM 37.4691 126.4505 335° Northwest  Level Estimated
Sun 06:21:00 AM 37.4691 126.4505 335° Northwest  Level Estimated
Sun 06:22:00 AM 37.4691 126.4505 335° Northwest  Level Estimated
Sun 06:23:00 AM 37.4691 126.4505 335° Northwest  Level Estimated
Sun 06:24:00 AM 37.4691 126.4505 335° Northwest  Level Estimated
Sun 06:25:00 AM 37.4691 126.4505 335° Northwest  Level Estimated
Sun 06:26:00 AM 37.4691 126.4505 335° Northwest  Level Estimated
Sun 06:27:00 AM 37.4691 126.4505 335° Northwest  Level Estimated
Sun 06:28:00 AM 37.4691 126.4505 335° Northwest  Level Estimated
Sun 06:29:00 AM 37.4691 126.4505 335° Northwest  Level Estimated
Sun 06:30:00 AM 37.4691 126.4505 335° Northwest  Level Estimated
Sun 06:31:00 AM 37.4691 126.4505 335° Northwest  Level Estimated
Sun 06:32:00 AM 37.4691 126.4505 335° Northwest  Level Estimated
Sun 06:33:00 AM 37.4691 126.4505 335° Northwest  Level Estimated
Sun 06:34:00 AM 37.4691 126.4505 335° Northwest  Level Estimated
Sun 06:35:00 AM 37.4691 126.4505 335° Northwest  Level Estimated
Sun 06:36:00 AM 37.4691 126.4505 335° Northwest  Level Estimated
Sun 06:37:00 AM 37.4691 126.4505 335° Northwest  Level Estimated
Sun 06:38:00 AM 37.4691 126.4505 335° Northwest  Level Estimated
Sun 06:39:00 AM 37.4691 126.4505 335° Northwest  Level Estimated
Sun 06:40:00 AM 37.4691 126.4505 335° Northwest  Level Estimated
Sun 06:41:00 AM 37.4691 126.4505 335° Northwest  Level Estimated
Sun 06:42:00 AM 37.4691 126.4505 335° Northwest  Level Estimated
Sun 06:43:00 AM 37.4691 126.4505 335° Northwest  Level Estimated
Sun 06:44:00 AM 37.4691 126.4505 335° Northwest  Level Estimated
Sun 06:45:00 AM 37.4691 126.4505 335° Northwest  Level Estimated
Sun 06:46:00 AM 37.4691 126.4505 335° Northwest  Level Estimated
Sun 06:47:00 AM 37.4691 126.4505 335° Northwest  Level Estimated
Sun 06:48:00 AM 37.4691 126.4505 335° Northwest  Level Estimated
Sun 06:49:00 AM 37.4691 126.4505 335° Northwest  Level Estimated
Sun 06:50:00 AM 37.4691 126.4505 335° Northwest  Level Estimated
Sun 06:51:00 AM 37.4691 126.4505 335° Northwest  Level Estimated
Sun 06:52:00 AM 37.4691 126.4505 335° Northwest  Level Estimated
Sun 06:53:00 AM 37.4691 126.4505 335° Northwest  Level Estimated
Sun 06:54:00 AM 37.4691 126.4505 335° Northwest  Level Estimated
Sun 06:55:00 AM 37.4691 126.4505 335° Northwest  Level Estimated
Sun 06:56:00 AM 37.4691 126.4505 335° Northwest  Level Estimated
Sun 06:57:00 AM 37.4691 126.4505 335° Northwest  Level Estimated
Sun 06:58:00 AM 37.4691 126.4505 335° Northwest  Level Estimated
Sun 06:59:00 AM 37.4691 126.4505 335° Northwest  Level Estimated
Sun 07:00:00 AM 37.4691 126.4505 335° Northwest  Level Estimated
Sun 07:01:00 AM 37.4691 126.4505 335° Northwest  Level Estimated
Sun 07:02:00 AM 37.4691 126.4505 335° Northwest  Level Estimated
Sun 07:03:00 AM 37.4691 126.4505 335° Northwest  Level Estimated
Sun 07:04:00 AM 37.4691 126.4505 335° Northwest  Level Estimated
Sun 07:05:00 AM 37.4691 126.4505 335° Northwest  Level Estimated
Sun 07:06:00 AM 37.4691 126.4505 335° Northwest  Level Estimated
Sun 07:07:00 AM 37.4691 126.4505 335° Northwest  Level Estimated
Sun 07:08:00 AM 37.4691 126.4505 335° Northwest  Level Estimated
Sun 07:09:00 AM 37.4691 126.4505 335° Northwest  Level Estimated
Sun 07:10:00 AM 37.4691 126.4505 335° Northwest  Level Estimated
Sun 07:11:00 AM 37.4691 126.4505 335° Northwest  Level Estimated
Sun 07:12:00 AM 37.4691 126.4505 335° Northwest  Level Estimated
Sun 07:13:00 AM 37.4691 126.4505 335° Northwest  Level Estimated
Sun 07:14:00 AM 37.4691 126.4505 335° Northwest  Level Estimated
Sun 07:15:00 AM 37.4691 126.4505 335° Northwest  Level Estimated
Sun 07:16:00 AM 37.4691 126.4505 335° Northwest  Level Estimated
Sun 07:17:00 AM 37.4691 126.4505 335° Northwest  Level Estimated
Sun 07:18:00 AM 37.4691 126.4505 335° Northwest  Level Estimated
Sun 07:19:00 AM 37.4691 126.4505 335° Northwest  Level Estimated
Sun 07:20:00 AM 37.4691 126.4505 335° Northwest  Level Estimated
Sun 07:21:00 AM 37.4691 126.4505 335° Northwest  Level Estimated
Sun 07:22:00 AM 37.4691 126.4505 335° Northwest  Level Estimated
Sun 07:23:00 AM 37.4691 126.4505 335° Northwest  Level Estimated
Sun 07:24:00 AM 37.4691 126.4505 335° Northwest  Level Estimated
Sun 07:25:00 AM 37.4691 126.4505 335° Northwest  Level Estimated
Sun 07:26:00 AM 37.4691 126.4505 335° Northwest  Level Estimated
Sun 07:27:00 AM 37.4691 126.4505 335° Northwest  Level Estimated
Sun 07:28:00 AM 37.4691 126.4505 335° Northwest  Level Estimated
Sun 07:29:00 AM 37.4691 126.4505 335° Northwest  Level Estimated
Sun 07:30:00 AM 37.4691 126.4505 335° Northwest  Level Estimated
Sun 07:31:00 AM 37.4691 126.4505 335° Northwest  Level Estimated
Sun 07:32:00 AM 37.4691 126.4505 335° Northwest  Level Estimated
Sun 07:33:00 AM 37.4691 126.4505 335° Northwest  Level Estimated
Sun 07:34:00 AM 37.4691 126.4505 335° Northwest  Level Estimated
Sun 07:35:00 AM 37.4691 126.4505 335° Northwest  Level Estimated
Sun 07:36:00 AM 37.4691 126.4505 335° Northwest  Level Estimated
Sun 07:37:00 AM 37.4691 126.4505 335° Northwest  Level Estimated
Sun 07:38:00 AM 37.4691 126.4505 335° Northwest  Level Estimated
Sun 07:39:00 AM 37.4691 126.4505 335° Northwest  Level Estimated
Sun 07:40:00 AM 37.4691 126.4505 335° Northwest  Level Estimated
Sun 07:41:00 AM 37.4691 126.4505 335° Northwest  Level Estimated
Sun 07:42:00 AM 37.4691 126.4505 335° Northwest  Level Estimated
Sun 07:43:00 AM 37.4691 126.4505 335° Northwest  Level Estimated
Sun 07:44:00 AM 37.4691 126.4505 335° Northwest  Level Estimated
Sun 07:45:00 AM 37.4691 126.4505 335° Northwest  Level Estimated
Sun 07:46:00 AM 37.4691 126.4505 335° Northwest  Level Estimated
Sun 07:47:00 AM 37.4691 126.4505 335° Northwest  Level Estimated
Sun 07:48:00 AM 37.4691 126.4505 335° Northwest  Level Estimated
Sun 07:49:00 AM 37.4691 126.4505 335° Northwest  Level Estimated
Sun 07:50:00 AM 37.4691 126.4505 335° Northwest  Level Estimated
Sun 07:51:00 AM 37.4691 126.4505 335° Northwest  Level Estimated
Sun 07:52:00 AM 37.4691 126.4505 335° Northwest  Level Estimated
Sun 07:53:00 AM 37.4691 126.4505 335° Northwest  Level Estimated
Sun 07:54:00 AM 37.4691 126.4505 335° Northwest  Level Estimated
Sun 07:55:00 AM 37.4691 126.4505 335° Northwest  Level Estimated
Sun 07:56:00 AM 37.4691 126.4505 335° Northwest  Level Estimated
Sun 07:57:00 AM 37.4691 126.4505 335° Northwest  Level Estimated
Sun 07:58:00 AM 37.4691 126.4505 335° Northwest  Level Estimated
Sun 07:59:00 AM 37.4691 126.4505 335° Northwest  Level Estimated
Sun 08:00:00 AM 37.4691 126.4505 335° Northwest  Level Estimated
Sun 08:01:00 AM 37.4691 126.4505 335° Northwest  Level Estimated
Sun 08:02:00 AM 37.4691 126.4505 335° Northwest  Level Estimated
Sun 08:03:00 AM 37.4691 126.4505 335° Northwest  Level Estimated
Sun 08:04:00 AM 37.4691 126.4505 335° Northwest  Level Estimated
Sun 08:05:00 AM 37.4691 126.4505 335° Northwest  Level Estimated
Sun 08:06:00 AM 37.4691 126.4505 335° Northwest  Level Estimated
Sun 08:07:00 AM 37.4691 126.4505 335° Northwest  Level Estimated
Sun 08:08:00 AM 37.4691 126.4505 335° Northwest  Level Estimated
Sun 08:09:00 AM 37.4691 126.4505 335° Northwest  Level Estimated
Sun 08:10:00 AM 37.4691 126.4505 335° Northwest  Level Estimated
Sun 08:11:00 AM 37.4691 126.4505 335° Northwest  Level Estimated
Sun 08:12:00 AM 37.4691 126.4505 335° Northwest  Level Estimated
Sun 08:13:00 AM 37.4691 126.4505 335° Northwest  Level Estimated
Sun 08:14:00 AM 37.4691 126.4505 335° Northwest  Level Estimated
Sun 08:15:00 AM 37.4691 126.4505 335° Northwest  Level Estimated
Sun 08:16:00 AM 37.4691 126.4505 335° Northwest  Level Estimated
Sun 08:17:00 AM 37.4691 126.4505 335° Northwest  Level Estimated
Sun 08:18:00 AM 37.4691 126.4505 335° Northwest  Level Estimated
Sun 08:19:00 AM 37.4691 126.4505 335° Northwest  Level Estimated
Sun 08:20:00 AM 37.4691 126.4505 335° Northwest  Level Estimated
Sun 08:21:00 AM 37.4691 126.4505 335° Northwest  Level Estimated
Sun 08:22:00 AM 37.4691 126.4505 335° Northwest  Level Estimated
Sun 08:23:00 AM 37.4691 126.4505 335° Northwest  Level Estimated
Sun 08:24:00 AM 37.4691 126.4505 335° Northwest  Level Estimated
Sun 08:25:00 AM 37.4691 126.4505 335° Northwest  Level Estimated
Sun 08:26:00 AM 37.4691 126.4505 335° Northwest  Level Estimated
Sun 08:27:00 AM 37.4691 126.4505 335° Northwest  Level Estimated
Sun 08:28:00 AM 37.4691 126.4505 335° Northwest  Level Estimated
Sun 08:29:00 AM 37.4691 126.4505 335° Northwest  Level Estimated
Sun 08:30:00 AM 37.4691 126.4505 335° Northwest  Level Estimated
Sun 08:31:00 AM 37.4691 126.4505 335° Northwest  Level Estimated
Sun 08:32:00 AM 37.4691 126.4505 335° Northwest  Level Estimated
Sun 08:33:00 AM 37.4691 126.4505 335° Northwest  Level Estimated
Sun 08:34:00 AM 37.4691 126.4505 335° Northwest  Level Estimated
Sun 08:35:00 AM 37.4691 126.4505 335° Northwest  Level Estimated
Sun 08:36:00 AM 37.4691 126.4505 335° Northwest  Level Estimated
Sun 08:37:00 AM 37.4691 126.4505 335° Northwest  Level Estimated
Sun 08:38:00 AM 37.4691 126.4505 335° Northwest  Level Estimated
Sun 08:39:00 AM 37.4691 126.4505 335° Northwest  Level Estimated
Sun 08:40:00 AM 37.4691 126.4505 335° Northwest  Level Estimated
Sun 08:41:00 AM 37.4691 126.4505 335° Northwest  Level Estimated
Sun 08:42:00 AM 37.4691 126.4505 335° Northwest  Level Estimated
Sun 08:43:00 AM 37.4691 126.4505 335° Northwest  Level Estimated
Sun 08:44:00 AM 37.4691 126.4505 335° Northwest  Level Estimated
Sun 08:45:00 AM 37.4691 126.4505 335° Northwest  Level Estimated
Sun 08:46:00 AM 37.4691 126.4505 335° Northwest  Level Estimated
Sun 08:47:00 AM 37.4691 126.4505 335° Northwest  Level Estimated
Sun 08:48:00 AM 37.4691 126.4505 335° Northwest  Level Estimated
Sun 08:49:00 AM 37.4691 126.4505 335° Northwest  Level Estimated
Sun 08:50:00 AM 37.4691 126.4505 335° Northwest  Level Estimated
Sun 08:51:00 AM 37.4691 126.4505 335° Northwest  Level Estimated
Sun 08:52:00 AM 37.4691 126.4505 335° Northwest  Level Estimated
Sun 08:53:00 AM 37.4691 126.4505 335° Northwest  Level Estimated
Sun 08:54:00 AM 37.4691 126.4505 335° Northwest  Level Estimated
Sun 08:55:00 AM 37.4691 126.4505 335° Northwest  Level Estimated
Sun 08:56:00 AM 37.4691 126.4505 335° Northwest  Level Estimated
Sun 08:57:00 AM 37.4691 126.4505 335° Northwest  Level Estimated
Sun 08:58:00 AM 37.4691 126.4505 335° Northwest  Level Estimated
Sun 08:59:00 AM 37.4691 126.4505 335° Northwest  Level Estimated
Sun 09:00:00 AM 37.4691 126.4505 335° Northwest  Level Estimated
Sun 09:01:00 AM 37.4691 126.4505 335° Northwest  Level Estimated
Sun 09:02:00 AM 37.4691 126.4505 335° Northwest  Level Estimated
Sun 09:03:00 AM 37.4691 126.4505 335° Northwest  Level Estimated
Sun 09:04:00 AM 37.4691 126.4505 335° Northwest  Level Estimated
Sun 09:05:00 AM 37.4691 126.4505 335° Northwest  Level Estimated
Sun 09:06:00 AM 37.4691 126.4505 335° Northwest  Level Estimated
Sun 09:07:00 AM 37.4691 126.4505 335° Northwest  Level Estimated
Sun 09:08:00 AM 37.4691 126.4505 335° Northwest  Level Estimated
Sun 09:09:00 AM 37.4691 126.4505 335° Northwest  Level Estimated
Sun 09:10:00 AM 37.4691 126.4505 335° Northwest  Level Estimated
Sun 09:11:00 AM 37.4691 126.4505 335° Northwest  Level Estimated
Sun 09:12:00 AM 37.4691 126.4505 335° Northwest  Level Estimated
Sun 09:13:00 AM 37.4691 126.4505 335° Northwest  Level Estimated
Sun 09:14:00 AM 37.4691 126.4505 335° Northwest  Level Estimated
Sun 09:15:00 AM 37.4691 126.4505 335° Northwest  Level Estimated
Sun 09:16:00 AM 37.4691 126.4505 335° Northwest  Level Estimated
Sun 09:17:00 AM 37.4691 126.4505 335° Northwest  Level Estimated
Sun 09:18:00 AM 37.4691 126.4505 335° Northwest  Level Estimated
Sun 09:19:00 AM 37.4691 126.4505 335° Northwest  Level Estimated
Sun 09:20:00 AM 37.4691 126.4505 335° Northwest  Level Estimated
Sun 09:21:00 AM 37.4691 126.4505 335° Northwest  Level Estimated
Sun 09:22:00 AM 37.4691 126.4505 335° Northwest  Level Estimated
Sun 09:23:00 AM 37.4691 126.4505 335° Northwest  Level Estimated
Sun 09:24:00 AM 37.4691 126.4505 335° Northwest  Level Estimated
Sun 09:25:00 AM 37.4691 126.4505 335° Northwest  Level Estimated
Sun 09:26:00 AM 37.4691 126.4505 335° Northwest  Level Estimated
Sun 09:27:00 AM 37.4691 126.4505 335° Northwest  Level Estimated
Sun 09:28:00 AM 37.4691 126.4505 335° Northwest  Level Estimated
Sun 09:29:00 AM 37.4691 126.4505 335° Northwest  Level Estimated
Sun 09:30:00 AM 37.4691 126.4505 335° Northwest  Level Estimated
Sun 09:31:00 AM 37.4691 126.4505 335° Northwest  Level Estimated
Sun 09:32:00 AM 37.4691 126.4505 335° Northwest  Level Estimated
Sun 09:33:00 AM 37.4691 126.4505 335° Northwest  Level Estimated
Sun 09:34:00 AM 37.4691 126.4505 335° Northwest  Level Estimated
Sun 09:35:00 AM 37.4691 126.4505 335° Northwest  Level Estimated
Sun 09:36:00 AM 37.4691 126.4505 335° Northwest  Level Estimated
Sun 09:37:00 AM 37.4691 126.4505 335° Northwest  Level Estimated
Sun 09:38:00 AM 37.4691 126.4505 335° Northwest  Level Estimated
Sun 09:39:00 AM 37.4691 126.4505 335° Northwest  Level Estimated
Sun 09:40:00 AM 37.4691 126.4505 335° Northwest  Level Estimated
Sun 09:41:00 AM 37.4691 126.4505 335° Northwest  Level Estimated
Sun 09:42:00 AM 37.4691 126.4505 335° Northwest  Level Estimated
Sun 09:43:00 AM 37.4691 126.4505 335° Northwest  Level Estimated
Sun 09:44:00 AM 37.4691 126.4505 335° Northwest  Level Estimated
Sun 09:45:00 AM 37.4691 126.4505 335° Northwest  Level Estimated
Sun 09:46:00 AM 37.4691 126.4505 335° Northwest  Level Estimated
Sun 09:47:00 AM 37.4691 126.4505 335° Northwest  Level Estimated
Sun 09:48:00 AM 37.4691 126.4505 335° Northwest  Level Estimated
Sun 09:49:00 AM 37.4691 126.4505 335° Northwest  Level Estimated
Sun 09:50:00 AM 37.4691 126.4505 335° Northwest  Level Estimated
Sun 09:51:00 AM 37.4691 126.4505 335° Northwest  Level Estimated
Sun 09:52:00 AM 37.4691 126.4505 335° Northwest  Level Estimated
Sun 09:53:00 AM 37.4691 126.4505 335° Northwest  Level Estimated
Sun 09:54:00 AM 37.4691 126.4505 335° Northwest  Level Estimated
Sun 09:55:00 AM 37.4691 126.4505 335° Northwest  Level Estimated
Sun 09:56:00 AM 37.4691 126.4505 335° Northwest  Level Estimated

Login

Don't have an account? Register now (free) for customized features, flight alerts, and more!